Time;durP1;ratioP1;P1;durP2;ratioP2;P2;SDS_P1;SDS_P2;PMS_P1;PMS_P2;Temp;Humidity;BMP_temperature;BMP_pressure;BME280_temperature;BME280_humidity;BME280_pressure;Samples;Min_cycle;Max_cycle;Signal;HPM_P1;HPM_P2
2022/03/05 00:01:48;;;;;;;;;;;;;;;0.19;80.73;102042.38;5041391;28;19935;-79
2022/03/05 00:04:15;;;;;;;;;;;;;;;0.18;79.95;102038.06;5046709;28;19928;-79
2022/03/05 00:06:41;;;;;;;;;;;;;;;0.19;80.25;102036.41;5047319;28;19964;-79
2022/03/05 00:09:06;;;;;;;;;;;;;;;0.17;79.84;102037.91;5045673;28;19963;-79
2022/03/05 00:11:31;;;;;;;;;;;;;;;0.10;81.82;102041.53;5046409;28;20036;-79
2022/03/05 00:13:56;;;;;;;;;;;;;;;0.07;81.35;102043.81;5047385;28;19917;-79
2022/03/05 00:16:22;;;;;;;;;;;;;;;0.03;81.71;102041.75;5045148;28;19929;-79
2022/03/05 00:18:48;;;;;;;;;;;;;;;0.01;81.63;102038.22;5044569;28;19936;-78
2022/03/05 00:21:13;;;;;;;;;;;;;;;-0.04;81.57;102042.84;5047641;28;19924;-79
2022/03/05 00:23:38;;;;;;;;;;;;;;;-0.07;82.53;102047.63;5046844;28;19924;-80
2022/03/05 00:26:04;;;;;;;;;;;;;;;-0.06;82.42;102040.91;5043724;28;19920;-80
2022/03/05 00:28:30;;;;;;;;;;;;;;;-0.13;82.99;102049.59;5046785;28;19924;-79
2022/03/05 00:30:58;;;;;;;;;;;;;;;-0.15;82.67;102043.53;5045876;28;20263;-80
2022/03/05 00:33:24;;;;;;;;;;;;;;;-0.18;82.72;102048.31;5049733;28;20368;-80
2022/03/05 00:35:49;;;;;;;;;;;;;;;-0.19;84.08;102048.16;5040911;28;19959;-80
2022/03/05 00:38:14;;;;;;;;;;;;;;;-0.20;83.19;102044.75;5045388;28;20299;-79
2022/03/05 00:40:41;;;;;;;;;;;;;;;-0.25;84.28;102040.03;5045725;28;19971;-79
2022/03/05 00:43:06;;;;;;;;;;;;;;;-0.32;84.69;102036.94;5045062;28;20016;-79
2022/03/05 00:45:31;;;;;;;;;;;;;;;-0.27;83.52;102037.38;5040488;28;20024;-79
2022/03/05 00:47:57;;;;;;;;;;;;;;;-0.31;84.59;102042.88;5039236;28;20142;-79
2022/03/05 00:50:22;;;;;;;;;;;;;;;-0.36;84.90;102034.91;5045765;28;19923;-79
2022/03/05 00:52:47;;;;;;;;;;;;;;;-0.36;84.65;102042.50;5059757;28;19929;-78
2022/03/05 00:55:12;;;;;;;;;;;;;;;-0.40;84.84;102032.84;5045706;28;19924;-78
2022/03/05 00:57:38;;;;;;;;;;;;;;;-0.44;85.64;102040.00;5044917;28;21805;-78
2022/03/05 01:00:04;;;;;;;;;;;;;;;-0.47;84.88;102040.63;5046973;28;20360;-78
2022/03/05 01:02:31;;;;;;;;;;;;;;;-0.50;85.64;102044.50;5037827;28;19925;-78
2022/03/05 01:04:56;;;;;;;;;;;;;;;-0.52;85.94;102033.38;5042611;28;19924;-79
2022/03/05 01:07:21;;;;;;;;;;;;;;;-0.52;86.22;102041.84;5048199;28;19986;-79
2022/03/05 01:09:46;;;;;;;;;;;;;;;-0.56;85.92;102035.63;5022723;28;19929;-79
2022/03/05 01:12:12;;;;;;;;;;;;;;;-0.59;86.11;102040.41;5044036;28;20406;-79
2022/03/05 01:14:37;;;;;;;;;;;;;;;-0.66;86.72;102035.56;5045457;28;20288;-79
2022/03/05 01:17:03;;;;;;;;;;;;;;;-0.68;85.99;102031.97;5044051;28;19924;-79
2022/03/05 01:19:28;;;;;;;;;;;;;;;-0.76;87.03;102032.91;5043732;28;20388;-79
2022/03/05 01:21:53;;;;;;;;;;;;;;;-0.79;86.63;102030.09;5045468;28;20407;-78
2022/03/05 01:24:18;;;;;;;;;;;;;;;-0.84;87.71;102033.88;5044531;28;20340;-78
2022/03/05 01:26:44;;;;;;;;;;;;;;;-0.87;86.99;102024.34;5044550;28;19921;-78
2022/03/05 01:29:09;;;;;;;;;;;;;;;-0.91;88.50;102034.03;5044161;28;19921;-78
2022/03/05 01:31:35;;;;;;;;;;;;;;;-0.95;87.74;102027.81;5041005;28;19943;-79
2022/03/05 01:34:00;;;;;;;;;;;;;;;-0.92;87.97;102029.72;5043809;28;21341;-78
2022/03/05 01:36:25;;;;;;;;;;;;;;;-0.96;88.08;102030.22;5046012;28;19940;-78
2022/03/05 01:38:50;;;;;;;;;;;;;;;-1.01;88.13;102027.25;5042222;28;19952;-78
2022/03/05 01:41:16;;;;;;;;;;;;;;;-1.01;88.60;102027.25;5046063;28;19921;-79
2022/03/05 01:43:41;;;;;;;;;;;;;;;-1.05;88.19;102027.69;5040964;28;19929;-79
2022/03/05 01:46:06;;;;;;;;;;;;;;;-1.09;89.05;102034.13;5041139;28;20014;-78
2022/03/05 01:48:31;;;;;;;;;;;;;;;-1.12;89.79;102036.34;5046845;28;19959;-78
2022/03/05 01:50:57;;;;;;;;;;;;;;;-1.14;88.84;102031.91;5064430;28;19931;-79
2022/03/05 01:53:22;;;;;;;;;;;;;;;-1.17;88.17;102031.63;5048415;28;19924;-78
2022/03/05 01:55:47;;;;;;;;;;;;;;;-1.22;89.09;102037.84;5049499;28;20315;-78
2022/03/05 01:58:13;;;;;;;;;;;;;;;-1.25;88.76;102032.53;5048075;28;20012;-78
2022/03/05 02:00:38;;;;;;;;;;;;;;;-1.31;90.12;102030.31;5048764;28;19925;-78
2022/03/05 02:03:03;;;;;;;;;;;;;;;-1.35;88.81;102025.72;5044809;28;19948;-78
2022/03/05 02:05:29;;;;;;;;;;;;;;;-1.38;89.62;102033.03;5048979;28;19925;-78
2022/03/05 02:07:54;;;;;;;;;;;;;;;-1.41;90.62;102030.19;5049540;28;19939;-78
2022/03/05 02:10:20;;;;;;;;;;;;;;;-1.41;89.50;102037.78;5063513;28;19921;-79
2022/03/05 02:12:45;;;;;;;;;;;;;;;-1.45;90.70;102034.09;5043102;28;19979;-79
2022/03/05 02:15:11;;;;;;;;;;;;;;;-1.46;89.82;102036.44;5048479;28;19943;-79
2022/03/05 02:17:36;;;;;;;;;;;;;;;-1.48;91.47;102038.81;5043151;28;19921;-78
2022/03/05 02:20:03;;;;;;;;;;;;;;;-1.50;91.85;102034.41;5048132;28;19974;-79
2022/03/05 02:22:28;;;;;;;;;;;;;;;-1.51;91.72;102023.41;5048183;28;20544;-79
2022/03/05 02:24:55;;;;;;;;;;;;;;;-1.50;91.62;102021.78;5051781;28;19921;-80
2022/03/05 02:27:21;;;;;;;;;;;;;;;-1.49;92.18;102021.03;5048566;28;19920;-78
2022/03/05 02:29:47;;;;;;;;;;;;;;;-1.50;91.89;102021.78;5048531;28;19928;-78
2022/03/05 02:32:12;;;;;;;;;;;;;;;-1.54;92.71;102020.59;5042459;28;19933;-77
2022/03/05 02:34:37;;;;;;;;;;;;;;;-1.54;92.77;102017.19;5033296;28;20348;-78
2022/03/05 02:37:03;;;;;;;;;;;;;;;-1.56;92.52;102022.09;5043380;28;19921;-78
2022/03/05 02:39:28;;;;;;;;;;;;;;;-1.61;92.88;102015.72;5045453;28;19929;-78
2022/03/05 02:41:53;;;;;;;;;;;;;;;-1.62;92.08;102017.34;5049379;28;19921;-79
2022/03/05 02:44:19;;;;;;;;;;;;;;;-1.67;92.82;102017.66;5047866;28;19967;-79
2022/03/05 02:46:45;;;;;;;;;;;;;;;-1.70;92.02;102017.34;5048126;28;20035;-79
2022/03/05 02:49:10;;;;;;;;;;;;;;;-1.75;92.85;102021.97;5049396;28;20428;-78
2022/03/05 02:51:35;;;;;;;;;;;;;;;-1.78;93.40;102020.78;5044413;28;19991;-79
2022/03/05 02:54:01;;;;;;;;;;;;;;;-1.77;92.26;102020.91;5045920;28;19924;-77
2022/03/05 02:56:26;;;;;;;;;;;;;;;-1.80;92.82;102020.63;5048684;28;20081;-78
2022/03/05 02:58:51;;;;;;;;;;;;;;;-1.81;92.98;102025.53;5044612;28;19967;-78
2022/03/05 03:01:16;;;;;;;;;;;;;;;-1.83;93.37;102019.44;5046185;28;19916;-79
2022/03/05 03:03:42;;;;;;;;;;;;;;;-1.81;93.29;102021.38;5049005;28;20367;-79
2022/03/05 03:06:07;;;;;;;;;;;;;;;-1.80;94.11;102018.13;5047821;28;20118;-79
2022/03/05 03:08:32;;;;;;;;;;;;;;;-1.81;93.09;102015.47;5045675;28;20414;-79
2022/03/05 03:10:58;;;;;;;;;;;;;;;-1.85;91.71;102020.94;5046000;28;19987;-79
2022/03/05 03:13:23;;;;;;;;;;;;;;;-1.92;92.66;102017.84;5044894;28;20303;-79
2022/03/05 03:15:48;;;;;;;;;;;;;;;-1.94;92.97;102019.31;5047783;28;20019;-79
2022/03/05 03:18:15;;;;;;;;;;;;;;;-1.97;92.96;102008.03;5046054;28;19959;-79
2022/03/05 03:20:41;;;;;;;;;;;;;;;-2.03;92.98;102013.38;5047152;28;19932;-79
2022/03/05 03:23:06;;;;;;;;;;;;;;;-2.08;93.17;102011.16;5046391;28;19921;-79
2022/03/05 03:25:31;;;;;;;;;;;;;;;-2.10;92.28;102015.19;5041391;28;20355;-79
2022/03/05 03:27:56;;;;;;;;;;;;;;;-2.19;93.18;102005.06;5049256;28;19920;-79
2022/03/05 03:30:22;;;;;;;;;;;;;;;-2.22;91.69;102014.88;5060002;28;19954;-79
2022/03/05 03:32:47;;;;;;;;;;;;;;;-2.30;93.62;102016.66;5047763;28;19925;-79
2022/03/05 03:35:13;;;;;;;;;;;;;;;-2.32;93.50;102009.66;5048884;28;20283;-79
2022/03/05 03:37:39;;;;;;;;;;;;;;;-2.36;92.85;102008.50;5048013;28;19974;-79
2022/03/05 03:40:06;;;;;;;;;;;;;;;-2.36;93.51;102016.06;5049092;28;19972;-78
2022/03/05 03:42:31;;;;;;;;;;;;;;;-2.38;94.28;102011.59;5040222;28;19917;-79
2022/03/05 03:44:57;;;;;;;;;;;;;;;-2.43;92.91;102013.66;5048512;28;19923;-78
2022/03/05 03:47:22;;;;;;;;;;;;;;;-2.54;91.01;102014.25;5062171;28;20390;-78
2022/03/05 03:49:48;;;;;;;;;;;;;;;-2.65;90.39;102029.94;5048876;28;20362;-78
2022/03/05 03:52:13;;;;;;;;;;;;;;;-2.76;90.30;102019.69;5046122;28;19938;-80
2022/03/05 03:54:39;;;;;;;;;;;;;;;-2.84;89.99;102018.03;5062394;28;20007;-78
2022/03/05 03:57:05;;;;;;;;;;;;;;;-2.91;89.47;102015.66;5046896;28;20371;-78
2022/03/05 03:59:30;;;;;;;;;;;;;;;-2.98;90.00;102015.75;5039243;28;20410;-79
2022/03/05 04:01:55;;;;;;;;;;;;;;;-3.03;90.64;102024.50;5043821;28;20414;-79
2022/03/05 04:04:20;;;;;;;;;;;;;;;-2.99;96.58;102016.50;5047371;28;19929;-80
2022/03/05 04:09:30;;;;;;;;;;;;;;;-2.79;96.64;102011.84;5045283;28;19931;-80
2022/03/05 04:11:55;;;;;;;;;;;;;;;-2.74;96.35;102017.31;5063252;28;19932;-80
2022/03/05 04:14:20;;;;;;;;;;;;;;;-2.74;96.00;102012.25;5044099;28;20015;-80
2022/03/05 04:16:46;;;;;;;;;;;;;;;-2.75;96.79;102011.38;5046926;28;20452;-80
2022/03/05 04:19:11;;;;;;;;;;;;;;;-2.74;97.41;102022.34;5044133;28;19921;-81
2022/03/05 04:21:36;;;;;;;;;;;;;;;-2.76;96.69;102018.78;5028374;28;20028;-80
2022/03/05 04:24:02;;;;;;;;;;;;;;;-2.76;97.88;102022.19;5046614;28;19964;-80
2022/03/05 04:26:27;;;;;;;;;;;;;;;-2.75;97.81;102023.09;5059191;28;20406;-79
2022/03/05 04:28:52;;;;;;;;;;;;;;;-2.73;97.73;102024.09;5045611;28;19921;-80
2022/03/05 04:31:17;;;;;;;;;;;;;;;-2.74;98.14;102024.84;5042654;28;20177;-80
2022/03/05 04:33:43;;;;;;;;;;;;;;;-2.75;97.36;102020.56;5036375;28;20470;-80
2022/03/05 04:36:08;;;;;;;;;;;;;;;-2.76;97.46;102026.34;5046824;28;20000;-80
2022/03/05 04:38:33;;;;;;;;;;;;;;;-2.76;99.23;102029.75;5052216;28;19952;-80
2022/03/05 04:40:58;;;;;;;;;;;;;;;-2.74;98.94;102025.75;5054456;28;19921;-80
2022/03/05 04:43:24;;;;;;;;;;;;;;;-2.74;98.93;102028.25;5052499;28;19967;-80
2022/03/05 04:45:49;;;;;;;;;;;;;;;-2.73;99.53;102030.06;5048911;28;20375;-80
2022/03/05 04:48:15;;;;;;;;;;;;;;;-2.69;98.58;102033.75;5043714;28;19920;-80
2022/03/05 04:50:40;;;;;;;;;;;;;;;-2.68;99.20;102038.06;5047377;28;19921;-80
2022/03/05 04:53:05;;;;;;;;;;;;;;;-2.71;98.92;102040.28;5065364;28;20379;-80
2022/03/05 04:55:30;;;;;;;;;;;;;;;-2.74;97.84;102043.38;5061966;28;19925;-80
2022/03/05 04:57:56;;;;;;;;;;;;;;;-2.76;98.03;102036.41;5042348;28;19988;-80
2022/03/05 05:00:21;;;;;;;;;;;;;;;-2.79;99.14;102037.00;5045845;28;19929;-80
2022/03/05 05:02:46;;;;;;;;;;;;;;;-2.79;99.92;102044.56;5042045;28;19954;-80
2022/03/05 05:05:12;;;;;;;;;;;;;;;-2.76;99.16;102038.94;5047063;28;19942;-80
2022/03/05 05:07:37;;;;;;;;;;;;;;;-2.77;99.22;102030.50;5041287;28;20055;-79
2022/03/05 05:10:03;;;;;;;;;;;;;;;-2.76;98.82;102036.41;5045202;28;20009;-80
2022/03/05 05:12:28;;;;;;;;;;;;;;;-2.77;99.37;102047.22;5047824;28;19929;-80
2022/03/05 05:14:54;;;;;;;;;;;;;;;-2.80;99.01;102042.75;5043358;28;19935;-80
2022/03/05 05:17:19;;;;;;;;;;;;;;;-2.81;98.59;102035.94;5026153;28;19928;-80
2022/03/05 05:19:44;;;;;;;;;;;;;;;-2.83;98.42;102052.53;5045707;28;19917;-81
2022/03/05 05:22:11;;;;;;;;;;;;;;;-2.85;98.85;102045.53;5043106;28;19944;-80
2022/03/05 05:24:38;;;;;;;;;;;;;;;-2.87;99.03;102047.91;5045715;28;19952;-80
2022/03/05 05:27:03;;;;;;;;;;;;;;;-2.88;99.62;102045.25;5046783;28;19971;-80
2022/03/05 05:29:29;;;;;;;;;;;;;;;-2.87;99.63;102045.41;5040029;28;19924;-80
2022/03/05 05:31:55;;;;;;;;;;;;;;;-2.85;99.83;102058.13;5043738;28;20027;-81
2022/03/05 05:34:21;;;;;;;;;;;;;;;-2.87;99.54;102057.97;5045820;28;19932;-80
2022/03/05 05:36:46;;;;;;;;;;;;;;;-2.88;100.00;102056.22;5046547;28;19921;-80
2022/03/05 05:39:12;;;;;;;;;;;;;;;-2.81;99.18;102063.63;5044627;28;20010;-80
2022/03/05 05:41:37;;;;;;;;;;;;;;;-2.80;100.00;102056.97;5040404;28;19917;-80
2022/03/05 05:44:04;;;;;;;;;;;;;;;-2.76;98.89;102071.66;5044025;28;20004;-80
2022/03/05 05:46:29;;;;;;;;;;;;;;;-2.81;98.85;102066.16;5044726;28;19925;-80
2022/03/05 05:48:55;;;;;;;;;;;;;;;-2.84;99.37;102068.38;5040518;28;19931;-81
2022/03/05 05:51:21;;;;;;;;;;;;;;;-2.85;99.61;102076.66;5045308;28;19917;-80
2022/03/05 05:53:46;;;;;;;;;;;;;;;-2.86;98.71;102066.41;5045108;28;19947;-80
2022/03/05 05:56:11;;;;;;;;;;;;;;;-2.88;99.56;102081.38;5044312;28;19921;-80
2022/03/05 05:58:37;;;;;;;;;;;;;;;-2.88;100.00;102077.97;5042907;28;19921;-80
2022/03/05 06:01:02;;;;;;;;;;;;;;;-2.89;99.96;102074.56;5041736;28;19964;-81
2022/03/05 06:03:27;;;;;;;;;;;;;;;-2.89;99.09;102074.56;5027409;28;19978;-80
2022/03/05 06:05:52;;;;;;;;;;;;;;;-2.87;98.57;102064.66;5046392;28;19924;-80
2022/03/05 06:08:18;;;;;;;;;;;;;;;-2.88;99.12;102075.47;5045795;28;20129;-80
2022/03/05 06:10:43;;;;;;;;;;;;;;;-2.91;99.62;102071.03;5040795;28;19975;-80
2022/03/05 06:13:09;;;;;;;;;;;;;;;-2.90;99.11;102077.81;5045001;28;20385;-80
2022/03/05 06:15:34;;;;;;;;;;;;;;;-2.92;99.28;102074.25;5039206;28;19924;-80
2022/03/05 06:17:59;;;;;;;;;;;;;;;-2.93;100.00;102077.50;5041638;28;19944;-80
2022/03/05 06:20:24;;;;;;;;;;;;;;;-2.89;99.86;102079.59;5043130;28;19976;-80
2022/03/05 06:22:50;;;;;;;;;;;;;;;-2.89;99.27;102068.66;5041216;28;19925;-79
2022/03/05 06:25:17;;;;;;;;;;;;;;;-2.88;99.39;102066.28;5041831;28;19968;-80
2022/03/05 06:27:43;;;;;;;;;;;;;;;-2.87;99.83;102075.59;5044300;28;20008;-80
2022/03/05 06:30:08;;;;;;;;;;;;;;;-2.88;99.57;102078.84;5044738;28;20023;-80
2022/03/05 06:32:34;;;;;;;;;;;;;;;-2.89;99.31;102072.06;5045005;28;19928;-81
2022/03/05 06:35:00;;;;;;;;;;;;;;;-2.88;100.00;102083.91;5043890;28;19921;-80
2022/03/05 06:37:25;;;;;;;;;;;;;;;-2.83;99.90;102080.22;5049727;28;19929;-80
2022/03/05 06:39:50;;;;;;;;;;;;;;;-2.83;99.96;102075.19;5048366;28;20412;-80
2022/03/05 06:42:15;;;;;;;;;;;;;;;-2.77;99.51;102079.94;5046379;28;19952;-81
2022/03/05 06:44:41;;;;;;;;;;;;;;;-2.75;99.63;102079.34;5044239;28;19921;-81
2022/03/05 06:47:07;;;;;;;;;;;;;;;-2.53;100.00;102079.00;5050021;28;20260;-79
2022/03/05 06:49:32;;;;;;;;;;;;;;;-2.03;100.00;102075.50;5037158;28;19927;-80
2022/03/05 06:51:58;;;;;;;;;;;;;;;-1.41;99.58;102075.63;5046531;28;19936;-81
2022/03/05 06:54:23;;;;;;;;;;;;;;;-0.74;94.63;102066.78;5041421;28;19921;-81
2022/03/05 06:56:49;;;;;;;;;;;;;;;-0.23;91.72;102069.78;5047025;28;19931;-80
2022/03/05 06:59:14;;;;;;;;;;;;;;;0.22;87.40;102078.03;5047648;28;19921;-80
2022/03/05 07:01:39;;;;;;;;;;;;;;;0.56;86.14;102080.13;5050266;28;19959;-81
2022/03/05 07:04:04;;;;;;;;;;;;;;;0.95;85.68;102085.22;5050221;28;19927;-80
2022/03/05 07:06:30;;;;;;;;;;;;;;;1.39;82.79;102080.47;5049452;28;19943;-80
2022/03/05 07:08:55;;;;;;;;;;;;;;;1.86;79.19;102085.31;5062427;28;19917;-79
2022/03/05 07:11:20;;;;;;;;;;;;;;;2.20;78.13;102082.13;5057836;28;20390;-79
2022/03/05 07:13:45;;;;;;;;;;;;;;;2.41;74.77;102083.84;5055221;28;19932;-79
2022/03/05 07:16:11;;;;;;;;;;;;;;;2.85;76.53;102089.00;5050931;28;19929;-79
2022/03/05 07:18:36;;;;;;;;;;;;;;;3.42;71.70;102099.41;5047262;28;19916;-78
2022/03/05 07:21:01;;;;;;;;;;;;;;;3.76;67.28;102095.19;5053846;28;19921;-80
2022/03/05 07:23:27;;;;;;;;;;;;;;;3.95;68.01;102103.44;5044777;28;20291;-79
2022/03/05 07:25:53;;;;;;;;;;;;;;;4.39;67.56;102095.63;5047444;28;19978;-79
2022/03/05 07:28:18;;;;;;;;;;;;;;;4.55;63.05;102095.03;5046211;28;20280;-79
2022/03/05 07:30:43;;;;;;;;;;;;;;;4.81;64.01;102094.38;5042558;28;20300;-79
2022/03/05 07:33:09;;;;;;;;;;;;;;;5.09;61.63;102089.53;5046251;28;20331;-79
2022/03/05 07:35:34;;;;;;;;;;;;;;;5.13;62.88;102088.97;5044626;28;19925;-79
2022/03/05 07:37:59;;;;;;;;;;;;;;;5.28;61.50;102091.72;5047639;28;20058;-79
2022/03/05 07:40:25;;;;;;;;;;;;;;;5.15;60.51;102092.50;5042991;28;20367;-78
2022/03/05 07:42:50;;;;;;;;;;;;;;;5.29;59.92;102086.72;5048280;28;19970;-77
2022/03/05 07:45:15;;;;;;;;;;;;;;;5.62;58.10;102093.22;5043413;28;20013;-79
2022/03/05 07:47:41;;;;;;;;;;;;;;;5.94;60.03;102091.06;5044886;28;19920;-78
2022/03/05 07:50:07;;;;;;;;;;;;;;;6.35;58.12;102088.66;5047840;28;19991;-78
2022/03/05 07:52:32;;;;;;;;;;;;;;;6.41;58.38;102087.41;5063189;28;19928;-78
2022/03/05 07:54:57;;;;;;;;;;;;;;;6.68;55.24;102079.72;5047488;28;20019;-78
2022/03/05 07:57:22;;;;;;;;;;;;;;;7.07;54.14;102094.09;5039537;28;20271;-79
2022/03/05 07:59:48;;;;;;;;;;;;;;;7.13;52.39;102098.72;5046499;28;19920;-79
2022/03/05 08:02:15;;;;;;;;;;;;;;;7.37;53.91;102099.34;5047490;28;20031;-79
2022/03/05 08:04:41;;;;;;;;;;;;;;;7.78;52.15;102097.56;5045232;28;19929;-79
2022/03/05 08:07:09;;;;;;;;;;;;;;;8.34;50.02;102099.06;5047785;28;20069;-79
2022/03/05 08:09:36;;;;;;;;;;;;;;;8.72;51.93;102105.50;5044642;28;20015;-78
2022/03/05 08:12:01;;;;;;;;;;;;;;;9.15;46.82;102106.13;5033872;28;20089;-80
2022/03/05 08:14:27;;;;;;;;;;;;;;;9.51;48.83;102109.75;5047389;28;20015;-80
2022/03/05 08:16:52;;;;;;;;;;;;;;;10.12;45.20;102107.75;5046871;28;19917;-79
2022/03/05 08:19:17;;;;;;;;;;;;;;;10.02;48.57;102105.53;5043034;28;19921;-79
2022/03/05 08:21:44;;;;;;;;;;;;;;;10.20;46.07;102098.75;5044964;28;20486;-78
2022/03/05 08:24:09;;;;;;;;;;;;;;;10.95;43.13;102109.19;5044959;28;19929;-78
2022/03/05 08:26:36;;;;;;;;;;;;;;;10.84;42.71;102111.25;5044242;28;19921;-78
2022/03/05 08:29:02;;;;;;;;;;;;;;;11.44;41.91;102119.13;5045276;28;20288;-77
2022/03/05 08:31:27;;;;;;;;;;;;;;;12.33;46.25;102117.00;5040559;28;19927;-79
2022/03/05 08:33:52;;;;;;;;;;;;;;;13.21;42.21;102110.09;5045052;28;19986;-78
2022/03/05 08:36:18;;;;;;;;;;;;;;;13.76;37.40;102118.13;5048764;28;19927;-79
2022/03/05 08:38:43;;;;;;;;;;;;;;;13.37;36.73;102118.47;5059702;28;19939;-79
2022/03/05 08:41:08;;;;;;;;;;;;;;;12.77;38.08;102117.00;5043833;28;19924;-78
2022/03/05 08:43:34;;;;;;;;;;;;;;;12.65;37.55;102113.94;5036524;28;19945;-78
2022/03/05 08:46:01;;;;;;;;;;;;;;;12.98;38.73;102109.19;5046029;28;19924;-78
2022/03/05 08:48:26;;;;;;;;;;;;;;;13.40;40.18;102110.81;5047980;28;19925;-78
2022/03/05 08:50:51;;;;;;;;;;;;;;;14.17;35.29;102111.78;5045107;28;19921;-79
2022/03/05 08:53:17;;;;;;;;;;;;;;;14.35;35.21;102113.22;5061382;28;20348;-79
2022/03/05 08:55:42;;;;;;;;;;;;;;;14.70;34.07;102111.78;5043191;28;19924;-78
2022/03/05 08:58:07;;;;;;;;;;;;;;;14.60;34.45;102108.00;5047464;28;19930;-79
2022/03/05 09:00:33;;;;;;;;;;;;;;;14.17;35.49;102113.47;5046002;28;19921;-79
2022/03/05 09:02:58;;;;;;;;;;;;;;;14.36;35.17;102112.38;5043817;28;19928;-80
2022/03/05 09:05:23;;;;;;;;;;;;;;;14.55;36.25;102116.47;5038545;28;19967;-81
2022/03/05 09:07:48;;;;;;;;;;;;;;;15.07;35.38;102111.16;5044725;28;20391;-79
2022/03/05 09:10:14;;;;;;;;;;;;;;;15.94;34.01;102111.03;5047454;28;19921;-79
2022/03/05 09:12:42;;;;;;;;;;;;;;;16.57;32.40;102103.06;5043415;28;20099;-79
2022/03/05 09:15:07;;;;;;;;;;;;;;;16.95;35.74;102100.47;5045528;28;19979;-79
2022/03/05 09:17:33;;;;;;;;;;;;;;;18.01;33.42;102097.34;5042869;28;19921;-79
2022/03/05 09:19:59;;;;;;;;;;;;;;;18.82;33.94;102098.66;5044290;28;19920;-79
2022/03/05 09:22:24;;;;;;;;;;;;;;;19.63;27.65;102092.69;5046596;28;19962;-79
2022/03/05 09:24:49;;;;;;;;;;;;;;;19.85;32.43;102093.78;5044837;28;19924;-78
2022/03/05 09:27:14;;;;;;;;;;;;;;;20.15;25.78;102094.91;5046503;28;20261;-78
2022/03/05 09:29:40;;;;;;;;;;;;;;;19.96;25.08;102093.84;5046654;28;19979;-78
2022/03/05 09:32:05;;;;;;;;;;;;;;;19.69;25.23;102089.28;5045203;28;19940;-79
2022/03/05 09:34:31;;;;;;;;;;;;;;;19.82;26.75;102091.13;5050143;28;19960;-79
2022/03/05 09:36:56;;;;;;;;;;;;;;;19.85;24.96;102088.56;5045205;28;19921;-78
2022/03/05 09:39:21;;;;;;;;;;;;;;;19.40;25.47;102087.19;5045668;28;19925;-78
2022/03/05 09:41:46;;;;;;;;;;;;;;;19.15;28.28;102083.41;5046474;28;19971;-78
2022/03/05 09:44:12;;;;;;;;;;;;;;;19.67;31.02;102083.16;5045314;28;19956;-78
2022/03/05 09:46:37;;;;;;;;;;;;;;;20.60;29.94;102082.19;5047893;28;19999;-78
2022/03/05 09:49:03;;;;;;;;;;;;;;;21.59;24.37;102083.47;5045147;28;19932;-77
2022/03/05 09:51:28;;;;;;;;;;;;;;;21.95;27.55;102078.28;5042446;28;20689;-78
2022/03/05 09:53:54;;;;;;;;;;;;;;;21.56;23.66;102079.13;5045174;28;20397;-78
2022/03/05 09:56:20;;;;;;;;;;;;;;;21.31;27.34;102093.03;5044160;28;20046;-77
2022/03/05 09:58:49;;;;;;;;;;;;;;;22.36;26.98;102089.66;5043182;28;19917;-77
2022/03/05 10:01:15;;;;;;;;;;;;;;;23.55;27.84;102081.38;5043384;28;19931;-78
2022/03/05 10:04:06;;;;;;;;;;;;;;;24.42;26.39;102083.34;5043475;28;19921;-79
2022/03/05 10:06:32;;;;;;;;;;;;;;;24.94;25.18;102081.91;5038602;28;20015;-77
2022/03/05 10:08:57;;;;;;;;;;;;;;;25.16;23.21;102085.16;5038351;28;20043;-79
2022/03/05 10:11:37;;;;;;;;;;;;;;;24.94;22.70;102082.78;5045938;28;19929;-78
2022/03/05 10:14:14;;;;;;;;;;;;;;;24.47;22.92;102081.53;5047658;28;19940;-78
2022/03/05 10:16:39;;;;;;;;;;;;;;;24.37;25.26;102076.38;5049086;28;19927;-78
2022/03/05 10:19:21;;;;;;;;;;;;;;;25.47;22.46;102085.59;5052085;28;20015;-78
2022/03/05 10:21:56;;;;;;;;;;;;;;;25.52;20.70;102083.75;5050233;28;19925;-78
2022/03/05 10:24:29;;;;;;;;;;;;;;;24.65;20.77;102080.47;5048820;28;19964;-79
2022/03/05 10:26:55;;;;;;;;;;;;;;;25.18;20.55;102080.72;5050757;28;20086;-78
2022/03/05 10:29:27;;;;;;;;;;;;;;;25.27;22.87;102084.13;5052239;28;19959;-79
2022/03/05 10:32:01;;;;;;;;;;;;;;;25.67;23.04;102076.50;5053762;28;19968;-79
2022/03/05 10:34:27;;;;;;;;;;;;;;;25.49;21.27;102074.16;5051514;28;19938;-79
2022/03/05 10:36:56;;;;;;;;;;;;;;;25.09;19.93;102074.69;5050080;28;19939;-79
2022/03/05 10:39:25;;;;;;;;;;;;;;;24.95;19.91;102081.00;5052841;28;20028;-79
2022/03/05 10:41:52;;;;;;;;;;;;;;;24.91;22.70;102074.03;5055332;28;19979;-80
2022/03/05 10:44:18;;;;;;;;;;;;;;;25.60;21.83;102077.50;5052023;28;19949;-80
2022/03/05 10:46:47;;;;;;;;;;;;;;;25.68;22.13;102069.47;5053357;28;19920;-79
2022/03/05 10:49:19;;;;;;;;;;;;;;;25.98;22.02;102072.56;5041703;28;19992;-79
2022/03/05 10:51:45;;;;;;;;;;;;;;;26.56;18.73;102077.66;5048783;28;19912;-81
2022/03/05 10:54:11;;;;;;;;;;;;;;;25.34;21.50;102084.91;5048877;28;20391;-80
2022/03/05 10:56:36;;;;;;;;;;;;;;;24.10;20.05;102080.13;5052428;28;19921;-81
2022/03/05 10:59:08;;;;;;;;;;;;;;;22.99;23.06;102078.19;5046911;28;19981;-79
2022/03/05 11:01:34;;;;;;;;;;;;;;;23.69;21.49;102076.94;5044643;28;19917;-80
2022/03/05 11:04:00;;;;;;;;;;;;;;;23.32;20.80;102089.38;5046516;28;19920;-79
2022/03/05 11:06:26;;;;;;;;;;;;;;;22.24;22.62;102085.31;5049457;28;20324;-81
2022/03/05 11:08:52;;;;;;;;;;;;;;;22.36;24.43;102081.81;5050290;28;19949;-80
2022/03/05 11:11:18;;;;;;;;;;;;;;;23.91;19.67;102089.91;5044124;28;19924;-81
2022/03/05 11:13:43;;;;;;;;;;;;;;;23.28;19.33;102085.03;5049451;28;19917;-82
2022/03/05 11:16:09;;;;;;;;;;;;;;;22.83;20.06;102079.06;5045572;28;20291;-80
2022/03/05 11:18:38;;;;;;;;;;;;;;;23.49;21.83;102084.91;5049053;28;20409;-80
2022/03/05 11:21:04;;;;;;;;;;;;;;;24.78;19.09;102078.56;5046649;28;19917;-81
2022/03/05 11:23:29;;;;;;;;;;;;;;;24.43;19.68;102069.31;5048525;28;19924;-82
2022/03/05 11:25:54;;;;;;;;;;;;;;;24.22;20.59;102066.88;5048627;28;19925;-80
2022/03/05 11:28:22;;;;;;;;;;;;;;;25.05;20.64;102073.00;5050498;28;19920;-81
2022/03/05 11:30:51;;;;;;;;;;;;;;;25.33;18.10;102070.00;5043197;28;19913;-81
2022/03/05 11:33:33;;;;;;;;;;;;;;;25.04;20.11;102072.97;5045644;28;20023;-80
2022/03/05 11:36:05;;;;;;;;;;;;;;;25.33;19.71;102062.97;5042423;28;19921;-79
2022/03/05 11:38:35;;;;;;;;;;;;;;;25.50;18.10;102070.63;5043401;28;19924;-79
2022/03/05 11:41:19;;;;;;;;;;;;;;;25.83;16.02;102068.38;5048132;28;19965;-81
2022/03/05 11:43:46;;;;;;;;;;;;;;;25.33;20.25;102067.38;5040848;28;19913;-81
2022/03/05 11:46:26;;;;;;;;;;;;;;;26.45;17.56;102074.34;5045950;28;19917;-81
2022/03/05 11:49:01;;;;;;;;;;;;;;;26.31;16.18;102068.44;5043477;28;19928;-82
2022/03/05 11:51:26;;;;;;;;;;;;;;;25.63;18.67;102066.91;5046001;28;19920;-80
2022/03/05 11:54:10;;;;;;;;;;;;;;;25.93;18.97;102057.69;5047778;28;20280;-79
2022/03/05 11:56:35;;;;;;;;;;;;;;;24.89;17.26;102053.00;5047044;28;19920;-83
2022/03/05 11:59:19;;;;;;;;;;;;;;;23.19;18.79;102059.72;5045581;28;19939;-82
2022/03/05 12:01:50;;;;;;;;;;;;;;;22.20;20.10;102053.03;5049296;28;19920;-82
2022/03/05 12:04:16;;;;;;;;;;;;;;;22.59;19.57;102051.19;5051042;28;19913;-82
2022/03/05 12:06:43;;;;;;;;;;;;;;;22.55;19.92;102052.06;5047234;28;20016;-81
2022/03/05 12:09:28;;;;;;;;;;;;;;;22.03;21.03;102057.34;5043247;28;20000;-81
2022/03/05 12:11:54;;;;;;;;;;;;;;;22.64;20.25;102061.66;5047214;28;19912;-82
2022/03/05 12:14:19;;;;;;;;;;;;;;;23.61;20.59;102056.84;5049724;28;19923;-82
2022/03/05 12:16:45;;;;;;;;;;;;;;;25.00;19.91;102053.75;5045323;28;19971;-81
2022/03/05 12:19:10;;;;;;;;;;;;;;;25.57;18.76;102045.06;5042114;28;19956;-81
2022/03/05 12:21:35;;;;;;;;;;;;;;;25.61;20.14;102042.38;5044027;28;19980;-82
2022/03/05 12:24:07;;;;;;;;;;;;;;;25.91;20.34;102050.69;5047036;28;19967;-80
2022/03/05 12:26:37;;;;;;;;;;;;;;;25.92;17.42;102041.91;5063342;28;19921;-80
2022/03/05 12:29:03;;;;;;;;;;;;;;;24.28;18.16;102049.28;5052759;28;19947;-82
2022/03/05 12:31:28;;;;;;;;;;;;;;;23.38;19.26;102043.84;5049668;28;19924;-81
2022/03/05 12:33:54;;;;;;;;;;;;;;;23.09;20.71;102049.25;5060808;28;19925;-80
2022/03/05 12:36:21;;;;;;;;;;;;;;;23.46;19.61;102042.03;5046071;28;19970;-81